sensor_id;sensor_type;location;lat;lon;timestamp;pressure;altitude;pressure_sealevel;temperature;humidity
7182;BME280;3632;42.724;23.298;2023-07-29T00:00:43;95112.56;;;20.78;59.05
7182;BME280;3632;42.724;23.298;2023-07-29T00:03:09;95236.47;;;21.59;58.50
7182;BME280;3632;42.724;23.298;2023-07-29T00:05:37;95234.06;;;21.58;58.23
7182;BME280;3632;42.724;23.298;2023-07-29T00:08:04;95194.91;;;21.25;58.30
7182;BME280;3632;42.724;23.298;2023-07-29T00:10:31;95247.31;;;21.41;57.99
7182;BME280;3632;42.724;23.298;2023-07-29T00:12:58;95242.09;;;21.41;57.72
7182;BME280;3632;42.724;23.298;2023-07-29T00:15:26;95241.88;;;21.36;57.68
7182;BME280;3632;42.724;23.298;2023-07-29T00:17:53;95064.88;;;19.73;58.13
7182;BME280;3632;42.724;23.298;2023-07-29T00:20:20;95255.75;;;21.08;59.55
7182;BME280;3632;42.724;23.298;2023-07-29T00:22:47;95222.09;;;20.93;60.15
7182;BME280;3632;42.724;23.298;2023-07-29T00:25:15;95234.69;;;20.96;60.24
7182;BME280;3632;42.724;23.298;2023-07-29T00:27:42;95227.03;;;21.09;60.02
7182;BME280;3632;42.724;23.298;2023-07-29T00:30:10;95230.63;;;21.08;59.40
7182;BME280;3632;42.724;23.298;2023-07-29T00:32:38;95227.16;;;21.22;58.77
7182;BME280;3632;42.724;23.298;2023-07-29T00:35:08;95223.09;;;21.13;59.02
7182;BME280;3632;42.724;23.298;2023-07-29T00:37:35;95220.75;;;21.18;58.73
7182;BME280;3632;42.724;23.298;2023-07-29T00:40:03;95224.91;;;21.13;58.89
7182;BME280;3632;42.724;23.298;2023-07-29T00:42:30;95016.22;;;19.17;58.63
7182;BME280;3632;42.724;23.298;2023-07-29T00:44:57;95197.38;;;20.90;59.01
7182;BME280;3632;42.724;23.298;2023-07-29T00:47:25;95221.78;;;20.81;60.46
7182;BME280;3632;42.724;23.298;2023-07-29T00:49:53;95229.53;;;20.60;61.14
7182;BME280;3632;42.724;23.298;2023-07-29T00:52:20;94732.44;;;17.32;61.70
7182;BME280;3632;42.724;23.298;2023-07-29T00:54:46;95228.13;;;20.43;62.25
7182;BME280;3632;42.724;23.298;2023-07-29T00:57:14;95221.00;;;20.30;62.46
7182;BME280;3632;42.724;23.298;2023-07-29T00:59:41;95232.78;;;20.33;62.82
7182;BME280;3632;42.724;23.298;2023-07-29T01:02:09;95197.78;;;20.07;62.79
7182;BME280;3632;42.724;23.298;2023-07-29T01:04:36;95217.44;;;20.31;62.80
7182;BME280;3632;42.724;23.298;2023-07-29T01:07:08;95218.97;;;20.11;63.68
7182;BME280;3632;42.724;23.298;2023-07-29T01:09:41;95217.88;;;20.05;64.32
7182;BME280;3632;42.724;23.298;2023-07-29T01:12:18;95218.50;;;19.93;65.04
7182;BME280;3632;42.724;23.298;2023-07-29T01:14:53;95216.91;;;19.92;64.92
7182;BME280;3632;42.724;23.298;2023-07-29T01:17:23;95226.34;;;20.14;64.24
7182;BME280;3632;42.724;23.298;2023-07-29T01:20:00;95221.81;;;20.31;63.10
7182;BME280;3632;42.724;23.298;2023-07-29T01:22:30;95155.63;;;19.92;63.08
7182;BME280;3632;42.724;23.298;2023-07-29T01:24:59;95215.84;;;20.30;63.36
7182;BME280;3632;42.724;23.298;2023-07-29T01:27:28;95224.91;;;20.26;63.97
7182;BME280;3632;42.724;23.298;2023-07-29T01:29:56;95105.53;;;19.49;63.88
7182;BME280;3632;42.724;23.298;2023-07-29T01:32:28;95209.78;;;19.94;64.89
7182;BME280;3632;42.724;23.298;2023-07-29T01:35:00;95213.06;;;19.88;65.57
7182;BME280;3632;42.724;23.298;2023-07-29T01:37:32;95212.59;;;19.99;65.58
7182;BME280;3632;42.724;23.298;2023-07-29T01:40:02;95217.88;;;19.76;66.29
7182;BME280;3632;42.724;23.298;2023-07-29T01:42:30;95158.47;;;19.53;66.58
7182;BME280;3632;42.724;23.298;2023-07-29T01:44:58;95214.03;;;19.72;66.87
7182;BME280;3632;42.724;23.298;2023-07-29T01:47:25;95206.47;;;19.56;67.36
7182;BME280;3632;42.724;23.298;2023-07-29T01:49:51;95220.28;;;19.78;66.98
7182;BME280;3632;42.724;23.298;2023-07-29T01:52:18;95212.28;;;20.02;65.71
7182;BME280;3632;42.724;23.298;2023-07-29T01:54:45;95214.66;;;20.03;65.44
7182;BME280;3632;42.724;23.298;2023-07-29T01:57:13;95219.66;;;20.05;65.11
7182;BME280;3632;42.724;23.298;2023-07-29T01:59:40;95223.56;;;20.16;65.03
7182;BME280;3632;42.724;23.298;2023-07-29T02:02:07;95217.69;;;20.22;64.68
7182;BME280;3632;42.724;23.298;2023-07-29T02:04:33;95222.41;;;20.03;65.22
7182;BME280;3632;42.724;23.298;2023-07-29T02:07:00;95223.56;;;19.86;66.30
7182;BME280;3632;42.724;23.298;2023-07-29T02:09:27;95076.44;;;18.66;67.52
7182;BME280;3632;42.724;23.298;2023-07-29T02:11:54;95033.75;;;18.55;67.10
7182;BME280;3632;42.724;23.298;2023-07-29T02:14:23;95197.63;;;19.50;67.53
7182;BME280;3632;42.724;23.298;2023-07-29T02:16:49;95228.91;;;19.55;67.63
7182;BME280;3632;42.724;23.298;2023-07-29T02:19:16;95233.94;;;19.72;67.43
7182;BME280;3632;42.724;23.298;2023-07-29T02:21:43;95236.50;;;19.72;67.28
7182;BME280;3632;42.724;23.298;2023-07-29T02:24:10;95216.28;;;19.75;66.63
7182;BME280;3632;42.724;23.298;2023-07-29T02:26:37;94846.72;;;16.77;67.47
7182;BME280;3632;42.724;23.298;2023-07-29T02:29:03;95229.44;;;19.51;68.53
7182;BME280;3632;42.724;23.298;2023-07-29T02:31:33;95229.78;;;19.25;69.41
7182;BME280;3632;42.724;23.298;2023-07-29T02:34:02;95234.97;;;19.25;69.46
7182;BME280;3632;42.724;23.298;2023-07-29T02:36:28;95222.13;;;19.32;68.96
7182;BME280;3632;42.724;23.298;2023-07-29T02:38:55;95228.31;;;19.31;69.24
7182;BME280;3632;42.724;23.298;2023-07-29T02:41:22;95232.09;;;19.20;69.30
7182;BME280;3632;42.724;23.298;2023-07-29T02:43:49;95236.56;;;19.26;69.21
7182;BME280;3632;42.724;23.298;2023-07-29T02:46:16;95247.00;;;19.33;68.61
7182;BME280;3632;42.724;23.298;2023-07-29T02:48:45;95242.13;;;19.15;69.11
7182;BME280;3632;42.724;23.298;2023-07-29T02:51:12;95239.31;;;19.25;69.21
7182;BME280;3632;42.724;23.298;2023-07-29T02:53:39;95243.69;;;19.24;68.90
7182;BME280;3632;42.724;23.298;2023-07-29T02:56:05;95238.97;;;19.28;68.79
7182;BME280;3632;42.724;23.298;2023-07-29T02:58:35;95111.84;;;18.57;68.38
7182;BME280;3632;42.724;23.298;2023-07-29T03:01:02;95174.69;;;19.10;67.91
7182;BME280;3632;42.724;23.298;2023-07-29T03:03:29;95255.81;;;19.46;67.14
7182;BME280;3632;42.724;23.298;2023-07-29T03:05:59;95245.50;;;19.61;65.88
7182;BME280;3632;42.724;23.298;2023-07-29T03:08:26;95254.84;;;19.62;66.03
7182;BME280;3632;42.724;23.298;2023-07-29T03:10:53;95253.88;;;19.63;65.53
7182;BME280;3632;42.724;23.298;2023-07-29T03:13:20;95249.25;;;19.73;64.92
7182;BME280;3632;42.724;23.298;2023-07-29T03:15:47;95253.19;;;19.84;64.16
7182;BME280;3632;42.724;23.298;2023-07-29T03:18:14;95154.94;;;19.17;64.16
7182;BME280;3632;42.724;23.298;2023-07-29T03:20:41;95161.53;;;18.97;64.67
7182;BME280;3632;42.724;23.298;2023-07-29T03:23:09;95249.16;;;19.67;65.14
7182;BME280;3632;42.724;23.298;2023-07-29T03:25:36;95236.75;;;19.25;65.47
7182;BME280;3632;42.724;23.298;2023-07-29T03:28:03;95261.03;;;19.38;65.85
7182;BME280;3632;42.724;23.298;2023-07-29T03:30:30;95253.44;;;19.59;65.19
7182;BME280;3632;42.724;23.298;2023-07-29T03:32:57;95298.59;;;19.49;65.74
7182;BME280;3632;42.724;23.298;2023-07-29T03:35:24;95259.38;;;19.45;65.39
7182;BME280;3632;42.724;23.298;2023-07-29T03:37:50;95254.50;;;19.50;66.12
7182;BME280;3632;42.724;23.298;2023-07-29T03:40:18;95251.63;;;19.45;66.47
7182;BME280;3632;42.724;23.298;2023-07-29T03:42:45;95248.50;;;19.27;66.91
7182;BME280;3632;42.724;23.298;2023-07-29T03:45:12;95257.34;;;19.33;67.02
7182;BME280;3632;42.724;23.298;2023-07-29T03:47:38;95112.81;;;18.56;65.31
7182;BME280;3632;42.724;23.298;2023-07-29T03:50:06;95169.09;;;18.84;66.88
7182;BME280;3632;42.724;23.298;2023-07-29T03:52:32;95080.28;;;18.24;66.65
7182;BME280;3632;42.724;23.298;2023-07-29T03:54:59;95200.34;;;19.11;66.23
7182;BME280;3632;42.724;23.298;2023-07-29T03:57:27;95253.78;;;19.11;67.22
7182;BME280;3632;42.724;23.298;2023-07-29T03:59:55;95234.91;;;18.88;66.45
7182;BME280;3632;42.724;23.298;2023-07-29T04:02:22;95257.78;;;19.36;66.70
7182;BME280;3632;42.724;23.298;2023-07-29T04:04:48;95252.69;;;19.28;66.57
7182;BME280;3632;42.724;23.298;2023-07-29T04:07:15;95261.47;;;19.19;67.15
7182;BME280;3632;42.724;23.298;2023-07-29T04:09:42;95263.16;;;19.12;67.49
7182;BME280;3632;42.724;23.298;2023-07-29T04:12:09;95167.34;;;18.76;66.49
7182;BME280;3632;42.724;23.298;2023-07-29T04:14:37;95258.44;;;19.15;66.28
7182;BME280;3632;42.724;23.298;2023-07-29T04:17:05;95259.88;;;19.18;66.90
7182;BME280;3632;42.724;23.298;2023-07-29T04:19:31;95268.47;;;19.10;67.56
7182;BME280;3632;42.724;23.298;2023-07-29T04:21:58;95265.00;;;19.26;67.59
7182;BME280;3632;42.724;23.298;2023-07-29T04:24:25;95268.84;;;19.30;67.68
7182;BME280;3632;42.724;23.298;2023-07-29T04:26:52;95227.84;;;19.04;67.79
7182;BME280;3632;42.724;23.298;2023-07-29T04:29:18;95268.28;;;19.43;67.11
7182;BME280;3632;42.724;23.298;2023-07-29T04:31:47;95259.81;;;19.49;66.83
7182;BME280;3632;42.724;23.298;2023-07-29T04:34:14;95199.25;;;19.06;67.15
7182;BME280;3632;42.724;23.298;2023-07-29T04:36:40;95264.22;;;19.63;66.47
7182;BME280;3632;42.724;23.298;2023-07-29T04:39:07;95263.19;;;19.87;65.19
7182;BME280;3632;42.724;23.298;2023-07-29T04:41:34;95289.53;;;20.05;64.33
7182;BME280;3632;42.724;23.298;2023-07-29T04:44:01;95255.34;;;20.10;63.86
7182;BME280;3632;42.724;23.298;2023-07-29T04:46:28;95142.13;;;19.38;63.45
7182;BME280;3632;42.724;23.298;2023-07-29T04:48:56;95193.97;;;19.22;64.66
7182;BME280;3632;42.724;23.298;2023-07-29T04:51:24;95285.16;;;20.20;64.13
7182;BME280;3632;42.724;23.298;2023-07-29T04:53:50;95284.63;;;20.25;63.73
7182;BME280;3632;42.724;23.298;2023-07-29T04:56:17;95273.59;;;20.31;63.74
7182;BME280;3632;42.724;23.298;2023-07-29T04:58:44;95281.63;;;20.36;63.75
7182;BME280;3632;42.724;23.298;2023-07-29T05:01:11;95280.63;;;20.51;62.82
7182;BME280;3632;42.724;23.298;2023-07-29T05:03:37;95283.53;;;20.63;62.16
7182;BME280;3632;42.724;23.298;2023-07-29T05:06:06;95281.94;;;20.62;61.76
7182;BME280;3632;42.724;23.298;2023-07-29T05:08:33;95288.31;;;20.81;61.40
7182;BME280;3632;42.724;23.298;2023-07-29T05:11:00;95207.53;;;20.35;61.42
7182;BME280;3632;42.724;23.298;2023-07-29T05:13:26;95258.22;;;20.80;61.35
7182;BME280;3632;42.724;23.298;2023-07-29T05:15:53;95319.47;;;21.02;61.13
7182;BME280;3632;42.724;23.298;2023-07-29T05:18:22;95280.88;;;20.92;61.08
7182;BME280;3632;42.724;23.298;2023-07-29T05:20:49;95290.50;;;21.13;60.76
7182;BME280;3632;42.724;23.298;2023-07-29T05:23:17;95294.94;;;21.19;60.63
7182;BME280;3632;42.724;23.298;2023-07-29T05:25:44;95291.81;;;21.24;60.47
7182;BME280;3632;42.724;23.298;2023-07-29T05:28:11;95285.09;;;21.29;60.31
7182;BME280;3632;42.724;23.298;2023-07-29T05:30:38;95288.28;;;21.31;60.37
7182;BME280;3632;42.724;23.298;2023-07-29T05:33:05;95303.13;;;21.37;60.41
7182;BME280;3632;42.724;23.298;2023-07-29T05:35:33;95282.06;;;21.26;60.04
7182;BME280;3632;42.724;23.298;2023-07-29T05:38:00;95299.16;;;21.41;60.31
7182;BME280;3632;42.724;23.298;2023-07-29T05:40:31;94997.69;;;19.43;60.20
7182;BME280;3632;42.724;23.298;2023-07-29T05:42:57;95151.44;;;19.47;61.48
7182;BME280;3632;42.724;23.298;2023-07-29T05:45:24;95177.41;;;20.48;61.67
7182;BME280;3632;42.724;23.298;2023-07-29T05:47:51;95303.28;;;21.36;60.54
7182;BME280;3632;42.724;23.298;2023-07-29T05:50:19;95312.13;;;21.41;60.37
7182;BME280;3632;42.724;23.298;2023-07-29T05:52:46;95300.50;;;21.16;60.67
7182;BME280;3632;42.724;23.298;2023-07-29T05:55:13;95301.88;;;20.97;61.71
7182;BME280;3632;42.724;23.298;2023-07-29T05:57:43;95217.75;;;20.58;61.82
7182;BME280;3632;42.724;23.298;2023-07-29T06:00:11;95261.38;;;20.96;61.62
7182;BME280;3632;42.724;23.298;2023-07-29T06:02:38;95267.50;;;21.10;61.03
7182;BME280;3632;42.724;23.298;2023-07-29T06:05:06;95294.81;;;21.49;61.76
7182;BME280;3632;42.724;23.298;2023-07-29T06:07:33;95177.06;;;20.94;60.70
7182;BME280;3632;42.724;23.298;2023-07-29T06:10:00;95297.63;;;21.96;59.44
7182;BME280;3632;42.724;23.298;2023-07-29T06:12:27;95294.97;;;22.17;59.08
7182;BME280;3632;42.724;23.298;2023-07-29T06:14:55;95242.72;;;21.43;58.40
7182;BME280;3632;42.724;23.298;2023-07-29T06:17:22;95300.84;;;22.32;58.18
7182;BME280;3632;42.724;23.298;2023-07-29T06:19:48;95289.06;;;22.37;58.19
7182;BME280;3632;42.724;23.298;2023-07-29T06:22:15;95201.50;;;21.83;58.16
7182;BME280;3632;42.724;23.298;2023-07-29T06:24:42;95128.41;;;21.38;58.27
7182;BME280;3632;42.724;23.298;2023-07-29T06:27:08;95288.34;;;22.49;58.27
7182;BME280;3632;42.724;23.298;2023-07-29T06:29:35;95281.34;;;22.50;58.33
7182;BME280;3632;42.724;23.298;2023-07-29T06:32:04;95274.81;;;22.60;57.76
7182;BME280;3632;42.724;23.298;2023-07-29T06:34:31;95276.78;;;22.58;57.85
7182;BME280;3632;42.724;23.298;2023-07-29T06:36:58;95191.69;;;22.13;58.26
7182;BME280;3632;42.724;23.298;2023-07-29T06:39:24;95207.63;;;22.03;58.07
7182;BME280;3632;42.724;23.298;2023-07-29T06:41:51;95113.84;;;21.72;58.19
7182;BME280;3632;42.724;23.298;2023-07-29T06:44:18;95054.16;;;21.03;58.45
7182;BME280;3632;42.724;23.298;2023-07-29T06:46:45;95260.56;;;22.97;57.65
7182;BME280;3632;42.724;23.298;2023-07-29T06:49:13;95263.38;;;23.09;55.87
7182;BME280;3632;42.724;23.298;2023-07-29T06:51:40;95129.88;;;22.36;55.80
7182;BME280;3632;42.724;23.298;2023-07-29T06:54:06;95266.63;;;23.24;55.50
7182;BME280;3632;42.724;23.298;2023-07-29T06:56:33;95228.41;;;23.11;55.54
7182;BME280;3632;42.724;23.298;2023-07-29T06:59:00;95264.00;;;23.17;56.73
7182;BME280;3632;42.724;23.298;2023-07-29T07:01:27;95263.44;;;23.29;58.24
7182;BME280;3632;42.724;23.298;2023-07-29T07:03:53;95262.47;;;23.56;58.08
7182;BME280;3632;42.724;23.298;2023-07-29T07:06:25;95266.66;;;24.16;57.30
7182;BME280;3632;42.724;23.298;2023-07-29T07:08:52;95232.81;;;23.96;56.10
7182;BME280;3632;42.724;23.298;2023-07-29T07:11:19;95314.41;;;24.68;54.88
7182;BME280;3632;42.724;23.298;2023-07-29T07:13:45;95257.25;;;24.66;55.35
7182;BME280;3632;42.724;23.298;2023-07-29T07:16:12;95258.09;;;24.60;54.67
7182;BME280;3632;42.724;23.298;2023-07-29T07:18:39;95255.72;;;24.52;54.78
7182;BME280;3632;42.724;23.298;2023-07-29T07:21:06;95256.16;;;24.42;55.58
7182;BME280;3632;42.724;23.298;2023-07-29T07:23:34;95261.03;;;24.26;55.24
7182;BME280;3632;42.724;23.298;2023-07-29T07:26:01;95260.63;;;24.02;54.47
7182;BME280;3632;42.724;23.298;2023-07-29T07:28:28;95253.84;;;23.95;55.14
7182;BME280;3632;42.724;23.298;2023-07-29T07:30:54;95255.63;;;23.94;56.10
7182;BME280;3632;42.724;23.298;2023-07-29T07:33:21;95113.00;;;23.12;57.36
7182;BME280;3632;42.724;23.298;2023-07-29T07:35:48;95120.19;;;23.30;54.61
7182;BME280;3632;42.724;23.298;2023-07-29T07:38:15;95250.59;;;24.19;55.64
7182;BME280;3632;42.724;23.298;2023-07-29T07:40:52;94967.88;;;22.50;54.84
7182;BME280;3632;42.724;23.298;2023-07-29T07:43:19;95242.34;;;24.42;56.38
7182;BME280;3632;42.724;23.298;2023-07-29T07:45:46;95223.91;;;24.37;55.52
7182;BME280;3632;42.724;23.298;2023-07-29T07:48:12;95214.38;;;24.18;54.94
7182;BME280;3632;42.724;23.298;2023-07-29T07:50:39;95237.06;;;24.55;54.96
7182;BME280;3632;42.724;23.298;2023-07-29T07:53:06;95240.63;;;24.67;54.10
7182;BME280;3632;42.724;23.298;2023-07-29T07:55:33;95245.03;;;24.67;52.66
7182;BME280;3632;42.724;23.298;2023-07-29T07:58:01;95168.13;;;23.93;53.36
7182;BME280;3632;42.724;23.298;2023-07-29T08:00:28;95252.78;;;24.80;52.06
7182;BME280;3632;42.724;23.298;2023-07-29T08:02:54;95192.03;;;24.41;52.28
7182;BME280;3632;42.724;23.298;2023-07-29T08:05:21;95196.47;;;24.28;51.74
7182;BME280;3632;42.724;23.298;2023-07-29T08:07:48;95191.16;;;24.54;53.75
7182;BME280;3632;42.724;23.298;2023-07-29T08:10:14;95049.59;;;23.13;53.95
7182;BME280;3632;42.724;23.298;2023-07-29T08:12:41;95196.75;;;24.57;53.37
7182;BME280;3632;42.724;23.298;2023-07-29T08:15:10;95246.16;;;25.22;52.68
7182;BME280;3632;42.724;23.298;2023-07-29T08:17:37;95081.06;;;24.34;50.94
7182;BME280;3632;42.724;23.298;2023-07-29T08:20:07;95249.34;;;25.55;49.68
7182;BME280;3632;42.724;23.298;2023-07-29T08:22:35;95245.47;;;25.64;48.97
7182;BME280;3632;42.724;23.298;2023-07-29T08:25:01;95186.13;;;25.28;47.80
7182;BME280;3632;42.724;23.298;2023-07-29T08:27:28;95241.31;;;25.81;48.27
7182;BME280;3632;42.724;23.298;2023-07-29T08:29:55;95199.28;;;25.65;48.11
7182;BME280;3632;42.724;23.298;2023-07-29T08:32:23;95237.28;;;26.04;48.63
7182;BME280;3632;42.724;23.298;2023-07-29T08:34:50;95242.91;;;26.25;48.62
7182;BME280;3632;42.724;23.298;2023-07-29T08:37:17;95175.53;;;25.91;47.19
7182;BME280;3632;42.724;23.298;2023-07-29T08:39:43;95234.94;;;26.39;47.61
7182;BME280;3632;42.724;23.298;2023-07-29T08:42:11;95252.78;;;26.23;47.04
7182;BME280;3632;42.724;23.298;2023-07-29T08:44:40;95229.75;;;26.50;45.82
7182;BME280;3632;42.724;23.298;2023-07-29T08:47:08;95063.63;;;25.58;45.16
7182;BME280;3632;42.724;23.298;2023-07-29T08:49:39;95223.28;;;26.71;45.31
7182;BME280;3632;42.724;23.298;2023-07-29T08:52:07;95189.84;;;26.43;45.38
7182;BME280;3632;42.724;23.298;2023-07-29T08:54:35;95218.84;;;26.90;44.17
7182;BME280;3632;42.724;23.298;2023-07-29T08:57:03;95213.16;;;26.93;46.46
7182;BME280;3632;42.724;23.298;2023-07-29T08:59:30;95237.31;;;27.06;44.47
7182;BME280;3632;42.724;23.298;2023-07-29T09:01:57;95218.56;;;27.21;44.58
7182;BME280;3632;42.724;23.298;2023-07-29T09:04:24;95212.94;;;27.36;43.94
7182;BME280;3632;42.724;23.298;2023-07-29T09:06:53;95213.91;;;27.53;43.45
7182;BME280;3632;42.724;23.298;2023-07-29T09:09:21;95205.69;;;27.61;43.29
7182;BME280;3632;42.724;23.298;2023-07-29T09:11:48;95063.38;;;26.97;44.23
7182;BME280;3632;42.724;23.298;2023-07-29T09:14:15;95155.22;;;27.42;40.84
7182;BME280;3632;42.724;23.298;2023-07-29T09:16:42;95131.47;;;27.55;41.49
7182;BME280;3632;42.724;23.298;2023-07-29T09:19:08;95194.88;;;28.04;43.17
7182;BME280;3632;42.724;23.298;2023-07-29T09:21:38;95188.72;;;28.10;42.72
7182;BME280;3632;42.724;23.298;2023-07-29T09:24:07;95198.59;;;28.31;43.15
7182;BME280;3632;42.724;23.298;2023-07-29T09:26:34;95135.50;;;28.21;41.94
7182;BME280;3632;42.724;23.298;2023-07-29T09:29:02;95186.56;;;28.58;40.84
7182;BME280;3632;42.724;23.298;2023-07-29T09:31:29;95183.78;;;28.77;40.76
7182;BME280;3632;42.724;23.298;2023-07-29T09:33:56;95186.16;;;28.78;38.47
7182;BME280;3632;42.724;23.298;2023-07-29T09:36:24;95177.91;;;28.86;39.71
7182;BME280;3632;42.724;23.298;2023-07-29T09:38:53;95184.78;;;29.04;39.81
7182;BME280;3632;42.724;23.298;2023-07-29T09:41:23;95182.75;;;29.23;39.46
7182;BME280;3632;42.724;23.298;2023-07-29T09:43:56;95182.50;;;29.41;41.82
7182;BME280;3632;42.724;23.298;2023-07-29T09:46:24;95174.59;;;29.36;36.99
7182;BME280;3632;42.724;23.298;2023-07-29T09:48:53;95169.28;;;29.19;36.21
7182;BME280;3632;42.724;23.298;2023-07-29T09:51:21;95172.53;;;29.26;38.06
7182;BME280;3632;42.724;23.298;2023-07-29T09:53:50;95054.28;;;28.09;36.07
7182;BME280;3632;42.724;23.298;2023-07-29T09:56:17;94917.94;;;27.76;35.78
7182;BME280;3632;42.724;23.298;2023-07-29T09:58:46;95160.78;;;29.45;36.45
7182;BME280;3632;42.724;23.298;2023-07-29T10:01:14;95157.38;;;29.62;37.20
7182;BME280;3632;42.724;23.298;2023-07-29T10:03:42;95163.44;;;29.84;37.61
7182;BME280;3632;42.724;23.298;2023-07-29T10:06:09;95158.97;;;30.01;35.28
7182;BME280;3632;42.724;23.298;2023-07-29T10:08:36;95152.88;;;30.17;36.88
7182;BME280;3632;42.724;23.298;2023-07-29T10:11:05;95155.19;;;30.35;36.10
7182;BME280;3632;42.724;23.298;2023-07-29T10:13:34;95146.22;;;30.53;37.14
7182;BME280;3632;42.724;23.298;2023-07-29T10:16:02;95065.28;;;30.12;35.94
7182;BME280;3632;42.724;23.298;2023-07-29T10:18:30;95127.00;;;30.53;33.97
7182;BME280;3632;42.724;23.298;2023-07-29T10:20:59;94751.00;;;28.38;34.00
7182;BME280;3632;42.724;23.298;2023-07-29T10:23:27;95136.06;;;30.89;34.14
7182;BME280;3632;42.724;23.298;2023-07-29T10:25:58;95122.75;;;31.00;33.65
7182;BME280;3632;42.724;23.298;2023-07-29T10:28:26;95125.75;;;31.14;35.05
7182;BME280;3632;42.724;23.298;2023-07-29T10:30:56;95042.50;;;30.76;32.81
7182;BME280;3632;42.724;23.298;2023-07-29T10:33:25;95113.53;;;31.35;33.85
7182;BME280;3632;42.724;23.298;2023-07-29T10:35:53;95110.59;;;31.68;34.25
7182;BME280;3632;42.724;23.298;2023-07-29T10:38:22;95103.38;;;31.95;33.43
7182;BME280;3632;42.724;23.298;2023-07-29T10:40:51;95102.09;;;32.08;33.50
7182;BME280;3632;42.724;23.298;2023-07-29T10:43:25;95099.56;;;32.38;33.45
7182;BME280;3632;42.724;23.298;2023-07-29T10:45:53;95090.38;;;32.56;31.68
7182;BME280;3632;42.724;23.298;2023-07-29T10:48:43;95104.94;;;32.69;34.31
7182;BME280;3632;42.724;23.298;2023-07-29T10:51:22;95098.38;;;32.86;34.07
7182;BME280;3632;42.724;23.298;2023-07-29T10:53:52;94853.06;;;31.38;32.95
7182;BME280;3632;42.724;23.298;2023-07-29T10:56:25;95098.38;;;32.81;33.04
7182;BME280;3632;42.724;23.298;2023-07-29T10:58:52;95048.75;;;32.63;30.58
7182;BME280;3632;42.724;23.298;2023-07-29T11:01:26;95055.84;;;32.78;32.08
7182;BME280;3632;42.724;23.298;2023-07-29T11:04:26;95079.63;;;33.13;31.82
7182;BME280;3632;42.724;23.298;2023-07-29T11:07:19;95082.53;;;33.12;33.39
7182;BME280;3632;42.724;23.298;2023-07-29T11:09:59;95098.91;;;33.19;32.11
7182;BME280;3632;42.724;23.298;2023-07-29T11:12:43;95077.25;;;33.42;32.04
7182;BME280;3632;42.724;23.298;2023-07-29T11:15:17;95067.47;;;33.42;30.83
7182;BME280;3632;42.724;23.298;2023-07-29T11:17:46;95067.16;;;33.49;31.39
7182;BME280;3632;42.724;23.298;2023-07-29T11:20:15;95076.16;;;33.68;30.31
7182;BME280;3632;42.724;23.298;2023-07-29T11:22:42;95070.28;;;33.81;30.98
7182;BME280;3632;42.724;23.298;2023-07-29T11:25:10;95070.50;;;33.95;31.05
7182;BME280;3632;42.724;23.298;2023-07-29T11:27:38;95077.09;;;34.03;30.68
7182;BME280;3632;42.724;23.298;2023-07-29T11:30:06;95077.03;;;34.08;29.69
7182;BME280;3632;42.724;23.298;2023-07-29T11:32:35;95071.69;;;34.33;29.17
7182;BME280;3632;42.724;23.298;2023-07-29T11:35:03;95015.69;;;34.06;28.61
7182;BME280;3632;42.724;23.298;2023-07-29T11:37:32;95070.53;;;34.49;28.69
7182;BME280;3632;42.724;23.298;2023-07-29T11:39:59;95061.31;;;34.80;29.92
7182;BME280;3632;42.724;23.298;2023-07-29T11:42:27;95054.69;;;34.83;29.43
7182;BME280;3632;42.724;23.298;2023-07-29T11:44:56;95064.25;;;34.79;29.54
7182;BME280;3632;42.724;23.298;2023-07-29T11:47:26;94993.16;;;34.57;29.56
7182;BME280;3632;42.724;23.298;2023-07-29T11:49:53;95053.88;;;34.88;29.12
7182;BME280;3632;42.724;23.298;2023-07-29T11:52:20;95052.25;;;34.92;28.21
7182;BME280;3632;42.724;23.298;2023-07-29T11:54:48;95007.63;;;35.04;27.46
7182;BME280;3632;42.724;23.298;2023-07-29T11:57:16;95030.19;;;35.30;27.88
7182;BME280;3632;42.724;23.298;2023-07-29T11:59:45;95040.97;;;35.39;27.98
7182;BME280;3632;42.724;23.298;2023-07-29T12:02:13;95007.19;;;35.49;25.47
7182;BME280;3632;42.724;23.298;2023-07-29T12:04:41;95034.66;;;35.58;27.64
7182;BME280;3632;42.724;23.298;2023-07-29T12:07:09;95031.91;;;35.92;27.37
7182;BME280;3632;42.724;23.298;2023-07-29T12:09:37;94983.66;;;36.09;27.11
7182;BME280;3632;42.724;23.298;2023-07-29T12:12:06;94965.13;;;35.61;25.25
7182;BME280;3632;42.724;23.298;2023-07-29T12:14:34;95020.41;;;36.21;25.56
7182;BME280;3632;42.724;23.298;2023-07-29T12:17:02;95026.44;;;36.26;25.18
7182;BME280;3632;42.724;23.298;2023-07-29T12:19:32;94827.34;;;35.14;24.15
7182;BME280;3632;42.724;23.298;2023-07-29T12:21:59;95015.72;;;36.50;24.97
7182;BME280;3632;42.724;23.298;2023-07-29T12:24:26;95015.22;;;36.48;25.57
7182;BME280;3632;42.724;23.298;2023-07-29T12:26:53;95007.41;;;36.56;26.10
7182;BME280;3632;42.724;23.298;2023-07-29T12:29:21;95010.47;;;36.82;23.40
7182;BME280;3632;42.724;23.298;2023-07-29T12:31:49;95014.84;;;36.92;23.67
7182;BME280;3632;42.724;23.298;2023-07-29T12:34:19;95008.72;;;36.40;23.95
7182;BME280;3632;42.724;23.298;2023-07-29T12:36:47;94942.41;;;35.79;24.37
7182;BME280;3632;42.724;23.298;2023-07-29T12:39:18;95000.81;;;36.35;25.58
7182;BME280;3632;42.724;23.298;2023-07-29T12:41:45;95002.63;;;36.40;25.29
7182;BME280;3632;42.724;23.298;2023-07-29T12:44:12;94911.81;;;35.44;24.70
7182;BME280;3632;42.724;23.298;2023-07-29T12:46:41;95007.97;;;35.26;25.44
7182;BME280;3632;42.724;23.298;2023-07-29T12:49:08;94983.16;;;35.17;24.53
7182;BME280;3632;42.724;23.298;2023-07-29T12:51:35;95002.19;;;35.90;24.02
7182;BME280;3632;42.724;23.298;2023-07-29T12:54:02;95000.81;;;36.35;24.33
7182;BME280;3632;42.724;23.298;2023-07-29T12:56:30;95010.94;;;36.71;22.48
7182;BME280;3632;42.724;23.298;2023-07-29T12:58:57;95016.06;;;36.81;22.33
7182;BME280;3632;42.724;23.298;2023-07-29T13:01:24;94981.63;;;36.57;22.69
7182;BME280;3632;42.724;23.298;2023-07-29T13:03:53;95002.38;;;36.74;23.04
7182;BME280;3632;42.724;23.298;2023-07-29T13:06:20;94993.41;;;36.70;23.97
7182;BME280;3632;42.724;23.298;2023-07-29T13:08:47;95025.63;;;36.82;23.59
7182;BME280;3632;42.724;23.298;2023-07-29T13:11:14;95011.66;;;37.22;22.19
7182;BME280;3632;42.724;23.298;2023-07-29T13:13:41;95002.34;;;37.52;21.76